Time;durP1;ratioP1;P1;durP2;ratioP2;P2;SDS_P1;SDS_P2;PMS_P1;PMS_P2;Temp;Humidity;BMP_temperature;BMP_pressure;BME280_temperature;BME280_humidity;BME280_pressure;Samples;Min_cycle;Max_cycle;Signal;HPM_P1;HPM_P2
2020/12/09 00:01:16;;;;;;;52.05;20.65;;;3.40;99.90;;;4.25;82.53;100550.53;5070955;28;20224;-73
2020/12/09 00:03:43;;;;;;;62.88;21.35;;;3.40;99.90;;;4.20;82.17;100535.06;5069858;28;20191;-71
2020/12/09 00:06:09;;;;;;;56.90;21.00;;;3.40;99.90;;;4.20;82.44;100539.38;5070587;28;20637;-71
2020/12/09 00:08:37;;;;;;;52.42;20.65;;;3.40;99.90;;;4.21;82.57;100549.72;5073400;28;20188;-71
2020/12/09 00:11:04;;;;;;;56.65;20.65;;;3.30;99.90;;;4.21;82.37;100552.31;5074813;28;20212;-72
2020/12/09 00:13:31;;;;;;;60.17;20.60;;;3.40;99.90;;;4.19;82.51;100553.19;5075007;28;20215;-71
2020/12/09 00:15:57;;;;;;;51.30;19.27;;;3.30;99.90;;;4.21;82.50;100559.22;5074733;28;20192;-72
2020/12/09 00:18:24;;;;;;;47.30;19.97;;;3.40;99.90;;;4.22;82.40;100564.38;5090022;28;20268;-72
2020/12/09 00:20:51;;;;;;;57.10;20.65;;;3.40;99.90;;;4.24;82.63;100567.78;5073907;28;20216;-71
2020/12/09 00:23:17;;;;;;;51.42;20.83;;;3.40;99.90;;;4.22;82.68;100559.19;5074490;28;20660;-71
2020/12/09 00:25:44;;;;;;;65.18;21.67;;;3.40;99.90;;;4.25;82.64;100573.84;5074429;28;20794;-71
2020/12/09 00:28:10;;;;;;;54.58;19.95;;;3.40;99.90;;;4.24;82.25;100583.31;5074279;28;20189;-72
2020/12/09 00:30:36;;;;;;;53.05;21.70;;;3.40;99.90;;;4.26;82.28;100575.53;5074493;28;20257;-71
2020/12/09 00:33:03;;;;;;;51.80;20.65;;;3.50;99.90;;;4.26;82.52;100576.41;5073997;28;20660;-72
2020/12/09 00:35:30;;;;;;;48.20;20.15;;;3.50;99.90;;;4.26;82.53;100570.34;5072764;28;20192;-72
2020/12/09 00:37:56;;;;;;;56.95;21.25;;;3.50;99.90;;;4.22;82.63;100564.38;5089551;28;20688;-71
2020/12/09 00:40:22;;;;;;;53.30;20.88;;;3.50;99.90;;;4.21;82.70;100562.66;5089513;28;20237;-71
2020/12/09 00:42:49;;;;;;;57.80;21.30;;;3.50;99.90;;;4.24;82.57;100557.44;5072948;28;20204;-72
2020/12/09 00:45:15;;;;;;;49.63;20.80;;;3.50;99.90;;;4.28;82.76;100553.06;5073725;28;20210;-71
2020/12/09 00:47:41;;;;;;;50.57;20.57;;;3.50;99.90;;;4.30;82.10;100566.84;5072392;28;20257;-72
2020/12/09 00:53:01;;;;;;;56.92;20.85;;;3.50;99.90;;;4.33;82.50;100569.41;5071776;28;20188;-72
2020/12/09 00:55:28;;;;;;;57.87;21.30;;;3.50;99.90;;;4.32;82.38;100571.13;5072527;28;20200;-72
2020/12/09 00:57:54;;;;;;;53.15;21.05;;;3.50;99.90;;;4.29;82.30;100566.00;5071973;28;20220;-72
2020/12/09 01:00:21;;;;;;;55.25;21.15;;;3.50;99.90;;;4.27;82.42;100567.75;5088735;28;20339;-72
2020/12/09 01:02:54;;;;;;;56.70;20.30;;;3.50;99.90;;;4.25;82.30;100569.53;5072183;28;20214;-72
2020/12/09 01:05:21;;;;;;;55.30;22.10;;;3.50;99.90;;;4.25;82.86;100574.69;5072143;28;20196;-72
2020/12/09 01:07:48;;;;;;;48.47;19.38;;;3.50;99.90;;;4.28;82.37;100564.28;5073310;28;20237;-73
2020/12/09 01:10:15;;;;;;;57.00;21.20;;;3.50;99.90;;;4.31;82.76;100559.06;5072358;28;20214;-72
2020/12/09 01:12:42;;;;;;;50.73;20.57;;;3.50;99.90;;;4.33;82.65;100551.28;5074123;28;20692;-71
2020/12/09 01:15:09;;;;;;;53.73;20.60;;;3.50;99.90;;;4.34;82.45;100555.56;5075007;28;20187;-71
2020/12/09 01:17:36;;;;;;;46.67;19.50;;;3.60;99.90;;;4.34;82.60;100564.19;5073464;28;20219;-70
2020/12/09 01:20:04;;;;;;;53.35;21.70;;;3.60;99.90;;;4.34;82.46;100564.19;5072474;28;20212;-71
2020/12/09 01:22:32;;;;;;;50.92;20.27;;;3.60;99.90;;;4.34;82.65;100573.69;5073663;28;20192;-71
2020/12/09 01:24:58;;;;;;;51.33;19.87;;;3.60;99.90;;;4.38;82.58;100577.94;5073239;28;20188;-71
2020/12/09 01:27:25;;;;;;;49.72;21.20;;;3.60;99.90;;;4.39;82.62;100583.09;5073140;28;20648;-71
2020/12/09 01:29:52;;;;;;;52.35;19.90;;;3.60;99.90;;;4.40;82.24;100571.03;5088312;28;20506;-71
2020/12/09 01:32:18;;;;;;;53.17;20.52;;;3.60;99.90;;;4.36;82.57;100577.97;5073187;28;20181;-71
2020/12/09 01:34:45;;;;;;;53.40;21.25;;;3.60;99.90;;;4.35;82.48;100584.06;5073367;28;20180;-71
2020/12/09 01:37:12;;;;;;;57.83;20.55;;;3.60;99.90;;;4.35;82.72;100584.06;5071728;28;20216;-71
2020/12/09 01:39:42;;;;;;;54.85;20.50;;;3.60;99.90;;;4.39;83.10;100583.09;5072925;28;20223;-71
2020/12/09 01:42:08;;;;;;;54.15;20.73;;;3.60;99.90;;;4.40;82.86;100568.44;5071724;28;20188;-71
2020/12/09 01:44:35;;;;;;;50.70;20.02;;;3.60;99.90;;;4.40;83.36;100568.44;5071450;28;20230;-71
2020/12/09 01:47:05;;;;;;;50.83;20.33;;;3.50;99.90;;;4.36;83.37;100562.44;5072848;28;20207;-71
2020/12/09 01:49:33;;;;;;;50.53;20.88;;;3.40;99.90;;;4.32;83.90;100555.59;5072419;28;20192;-71
2020/12/09 01:52:00;;;;;;;56.50;20.88;;;3.30;99.90;;;4.27;84.64;100551.38;5072835;28;20192;-71
2020/12/09 01:54:27;;;;;;;51.40;20.43;;;3.20;99.90;;;4.21;85.65;100561.81;5072735;28;20190;-71
2020/12/09 01:57:08;;;;;;;52.92;21.42;;;3.20;99.90;;;4.18;85.97;100552.38;5072436;28;20231;-71
2020/12/09 01:59:37;;;;;;;60.22;21.08;;;3.10;99.90;;;4.16;86.64;100553.25;5072226;28;20188;-71
2020/12/09 02:02:05;;;;;;;55.95;21.52;;;3.10;99.90;;;4.10;87.34;100559.38;5071246;28;20192;-71
2020/12/09 02:04:32;;;;;;;53.00;20.63;;;3.00;99.90;;;4.09;87.68;100561.97;5072875;28;20194;-72
2020/12/09 02:06:59;;;;;;;61.23;21.00;;;3.00;99.90;;;4.05;88.11;100549.97;5072108;28;20203;-71
2020/12/09 02:09:26;;;;;;;63.23;22.27;;;3.00;99.90;;;4.00;88.69;100550.03;5080926;28;20185;-70
2020/12/09 02:11:54;;;;;;;64.80;21.43;;;2.90;99.90;;;3.97;89.47;100552.66;5086282;28;20212;-70
2020/12/09 02:14:22;;;;;;;62.50;22.60;;;2.90;99.90;;;3.97;89.88;100544.88;5075839;28;20571;-71
2020/12/09 02:16:50;;;;;;;60.80;22.67;;;2.90;99.90;;;3.98;90.04;100549.19;5060039;28;20562;-71
2020/12/09 02:19:17;;;;;;;61.57;22.33;;;2.90;99.90;;;3.97;90.48;100552.66;5087506;28;20599;-71
2020/12/09 02:21:44;;;;;;;60.20;22.03;;;2.90;99.90;;;3.98;90.72;100554.38;5087012;28;20220;-71
2020/12/09 02:24:11;;;;;;;63.33;21.97;;;2.90;99.90;;;3.98;91.15;100551.78;5072067;28;20183;-71
2020/12/09 02:26:42;;;;;;;56.63;21.63;;;2.90;99.90;;;4.03;91.29;100554.31;5070957;28;20191;-71
2020/12/09 02:29:09;;;;;;;52.00;21.88;;;2.90;99.90;;;4.02;91.48;100556.03;5071377;28;20196;-71
2020/12/09 02:31:35;;;;;;;59.80;21.47;;;2.90;99.90;;;4.02;91.51;100558.59;5071012;28;20223;-71
2020/12/09 02:34:01;;;;;;;58.55;22.42;;;2.90;99.90;;;4.01;91.59;100554.31;5071728;28;20195;-71
2020/12/09 02:36:28;;;;;;;58.90;22.25;;;2.90;99.90;;;4.01;91.99;100541.38;5071800;28;20184;-71
2020/12/09 02:38:55;;;;;;;64.60;23.80;;;2.90;99.90;;;4.03;92.20;100543.94;5071641;28;20552;-72
2020/12/09 02:41:21;;;;;;;65.70;23.47;;;2.90;99.90;;;4.03;91.95;100547.41;5087446;28;20211;-71
2020/12/09 02:43:48;;;;;;;57.90;21.63;;;2.90;99.90;;;4.04;91.97;100537.88;5070603;28;20195;-71
2020/12/09 02:46:14;;;;;;;69.23;23.27;;;2.90;99.90;;;4.02;92.44;100545.66;5086214;28;20226;-71
2020/12/09 02:48:40;;;;;;;64.17;25.00;;;2.90;99.90;;;3.99;92.43;100545.72;5071307;28;20199;-71
2020/12/09 02:51:07;;;;;;;61.53;23.70;;;2.90;99.90;;;3.98;92.28;100549.19;5071394;28;20200;-71
2020/12/09 02:53:33;;;;;;;60.43;23.37;;;2.90;99.90;;;3.96;92.48;100550.06;5071548;28;20184;-71
2020/12/09 02:56:00;;;;;;;66.40;23.10;;;2.80;99.90;;;3.97;92.82;100546.63;5070649;28;20181;-71
2020/12/09 02:58:28;;;;;;;62.97;23.60;;;2.90;99.90;;;3.99;92.85;100545.72;5069398;28;20215;-70
2020/12/09 03:00:55;;;;;;;62.93;22.00;;;2.90;99.90;;;4.01;92.95;100549.16;5071558;28;20696;-71
2020/12/09 03:03:21;;;;;;;59.23;23.10;;;2.90;99.90;;;4.01;93.07;100541.38;5071418;28;20194;-70
2020/12/09 03:05:48;;;;;;;64.25;23.95;;;2.90;99.90;;;4.05;93.07;100542.19;5070227;28;20192;-70
2020/12/09 03:08:14;;;;;;;62.27;23.50;;;2.90;99.90;;;4.06;93.00;100541.31;5071243;28;20184;-70
2020/12/09 03:10:40;;;;;;;58.83;23.03;;;2.90;99.90;;;4.07;93.20;100535.28;5070021;28;20212;-70
2020/12/09 03:13:07;;;;;;;70.63;23.30;;;2.90;99.90;;;4.03;93.01;100539.63;5071246;28;20267;-71
2020/12/09 03:15:33;;;;;;;61.87;23.60;;;2.90;99.90;;;4.01;93.15;100538.78;5071401;28;20188;-71
2020/12/09 03:18:00;;;;;;;60.97;22.75;;;2.90;99.90;;;3.98;92.96;100528.50;5069079;28;20212;-71
2020/12/09 03:20:26;;;;;;;64.50;23.67;;;2.80;99.90;;;3.97;92.98;100519.00;5071194;28;20208;-71
2020/12/09 03:22:54;;;;;;;67.97;24.67;;;2.80;99.90;;;3.98;93.29;100532.81;5085892;28;20199;-71
2020/12/09 03:25:20;;;;;;;65.43;22.47;;;2.80;99.90;;;3.92;93.14;100536.31;5071182;28;20279;-71
2020/12/09 03:27:46;;;;;;;58.80;21.85;;;2.80;99.90;;;3.93;93.09;100532.00;5086970;28;20188;-71
2020/12/09 03:30:13;;;;;;;67.17;23.47;;;2.80;99.90;;;3.93;93.08;100525.13;5070198;28;20219;-71
2020/12/09 03:32:39;;;;;;;69.23;24.77;;;2.80;99.90;;;3.93;93.15;100530.28;5071382;28;20184;-70
2020/12/09 03:35:06;;;;;;;67.97;24.23;;;2.80;99.90;;;3.96;93.32;100529.38;5070128;28;20187;-70
2020/12/09 03:37:32;;;;;;;70.28;25.38;;;2.80;99.90;;;3.97;93.33;100529.34;5071097;28;20211;-71
2020/12/09 03:39:58;;;;;;;72.93;26.07;;;2.80;99.90;;;3.96;93.29;100530.25;5070653;28;20211;-71
2020/12/09 03:42:25;;;;;;;63.63;22.52;;;2.80;99.90;;;3.95;93.39;100528.53;5073527;28;20195;-71
2020/12/09 03:44:51;;;;;;;65.83;24.07;;;2.90;99.90;;;3.93;93.42;100530.28;5075395;28;20188;-70
2020/12/09 03:47:18;;;;;;;66.17;23.97;;;2.90;99.90;;;3.96;93.28;100543.19;5074359;28;20208;-70
2020/12/09 03:49:44;;;;;;;75.13;22.53;;;2.90;99.90;;;3.96;93.26;100545.78;5074676;28;20188;-71
2020/12/09 03:52:10;;;;;;;64.82;23.58;;;3.00;99.90;;;3.97;93.43;100547.47;5075045;28;20269;-71
2020/12/09 03:54:36;;;;;;;63.97;22.30;;;3.00;99.90;;;3.97;93.32;100550.06;5073420;28;20192;-70
2020/12/09 03:57:03;;;;;;;59.78;23.02;;;3.10;99.90;;;3.94;93.41;100552.69;5074151;28;20262;-71
2020/12/09 03:59:29;;;;;;;72.10;24.57;;;3.00;99.90;;;3.98;93.42;100554.38;5074559;28;20183;-71
2020/12/09 04:01:55;;;;;;;72.93;23.52;;;3.10;99.90;;;3.98;93.41;100553.50;5074498;28;20207;-72
2020/12/09 04:04:22;;;;;;;67.90;25.43;;;3.10;99.90;;;3.98;93.48;100553.50;5074444;28;20203;-71
2020/12/09 04:06:48;;;;;;;68.00;25.38;;;3.10;99.90;;;3.99;93.33;100550.91;5074431;28;20192;-71
2020/12/09 04:09:15;;;;;;;72.68;26.15;;;3.10;99.90;;;4.00;93.25;100542.28;5074499;28;20188;-71
2020/12/09 04:11:41;;;;;;;62.90;24.60;;;3.10;99.90;;;4.02;93.47;100545.66;5074573;28;20196;-70
2020/12/09 04:14:07;;;;;;;63.88;23.40;;;3.10;99.90;;;3.99;93.23;100544.84;5090001;28;20207;-71
2020/12/09 04:16:33;;;;;;;71.38;24.90;;;3.10;99.90;;;3.97;93.29;100539.69;5069761;28;20197;-71
2020/12/09 04:18:59;;;;;;;69.70;25.98;;;3.10;99.90;;;3.98;93.27;100532.81;5072892;28;20212;-71
2020/12/09 04:21:26;;;;;;;63.00;24.80;;;3.10;99.90;;;3.96;93.22;100543.19;5074104;28;20622;-70
2020/12/09 04:23:53;;;;;;;74.63;27.67;;;3.10;99.90;;;3.96;93.11;100540.59;5073438;28;20195;-71
2020/12/09 04:26:19;;;;;;;58.38;23.60;;;3.10;99.90;;;3.96;93.14;100550.94;5073956;28;20199;-71
2020/12/09 04:28:45;;;;;;;71.47;26.53;;;3.10;99.90;;;3.97;92.98;100551.81;5074009;28;20203;-71
2020/12/09 04:31:11;;;;;;;64.13;24.13;;;3.10;99.90;;;3.99;93.08;100545.72;5073009;28;20220;-71
2020/12/09 04:33:38;;;;;;;67.33;23.80;;;3.20;99.90;;;3.97;92.87;100555.22;5074163;28;20245;-71
2020/12/09 04:36:06;;;;;;;71.30;25.40;;;3.20;99.90;;;3.93;92.61;100544.94;5072535;28;20196;-71
2020/12/09 04:38:33;;;;;;;63.47;24.23;;;3.10;99.90;;;3.90;92.57;100545.88;5073685;28;20231;-71
2020/12/09 04:40:59;;;;;;;65.88;22.80;;;3.10;99.90;;;3.86;92.20;100541.59;5073023;28;20208;-71
2020/12/09 04:43:25;;;;;;;69.90;24.80;;;3.10;99.90;;;3.88;92.28;100547.63;5078229;28;20196;-71
2020/12/09 04:45:52;;;;;;;74.18;25.80;;;3.10;99.90;;;3.86;92.13;100557.13;5073722;28;20810;-71
2020/12/09 04:48:24;;;;;;;67.50;25.25;;;3.10;99.90;;;3.84;91.71;100557.16;5088004;28;20196;-72
2020/12/09 04:51:17;;;;;;;60.97;23.33;;;3.10;99.90;;;3.82;91.39;100558.03;5073649;28;20212;-71
2020/12/09 04:53:44;;;;;;;61.20;24.10;;;3.10;99.90;;;3.81;91.57;100558.91;5067364;28;20207;-71
2020/12/09 04:56:10;;;;;;;65.87;24.87;;;3.10;99.90;;;3.81;91.53;100564.94;5073748;28;20192;-70
2020/12/09 04:58:42;;;;;;;61.07;23.13;;;3.10;99.90;;;3.85;91.23;100568.34;5073359;28;20207;-72
2020/12/09 05:01:10;;;;;;;64.93;23.33;;;3.10;99.90;;;3.88;91.22;100584.66;5091165;28;20212;-70
2020/12/09 05:03:43;;;;;;;65.72;24.65;;;3.10;99.90;;;3.90;91.21;100576.91;5089059;28;20191;-70
2020/12/09 05:06:13;;;;;;;68.40;24.35;;;3.10;99.90;;;3.92;91.15;100585.50;5087859;28;20192;-72
2020/12/09 05:08:52;;;;;;;61.23;22.37;;;3.10;99.90;;;3.93;91.06;100576.88;5073536;28;20180;-70
2020/12/09 05:11:22;;;;;;;59.50;22.47;;;3.10;99.90;;;3.92;90.74;100574.31;5073413;28;20204;-70
2020/12/09 05:13:53;;;;;;;68.50;24.73;;;3.10;99.90;;;3.90;90.98;100566.56;5073483;28;20188;-71
2020/12/09 05:16:21;;;;;;;65.17;23.03;;;3.10;99.90;;;3.84;90.54;100576.97;5073748;28;20608;-70
2020/12/09 05:18:51;;;;;;;65.03;25.80;;;3.00;99.90;;;3.78;90.56;100572.72;5073708;28;20204;-71
2020/12/09 05:21:20;;;;;;;64.73;25.07;;;2.90;99.90;;;3.77;90.48;100572.75;5074366;28;20208;-71
2020/12/09 05:23:51;;;;;;;64.50;23.37;;;2.90;99.90;;;3.79;90.50;100581.34;5087950;28;20196;-70
2020/12/09 05:26:24;;;;;;;64.90;25.03;;;2.90;99.90;;;3.77;90.39;100575.34;5072942;28;20192;-71
2020/12/09 05:29:09;;;;;;;74.57;24.93;;;2.80;99.90;;;3.70;90.41;100579.72;5072799;28;20599;-71
2020/12/09 05:31:36;;;;;;;70.90;24.87;;;2.80;99.90;;;3.64;90.27;100579.81;5072820;28;20200;-71
2020/12/09 05:34:11;;;;;;;71.90;23.97;;;2.80;99.90;;;3.60;90.33;100587.63;5070536;28;20197;-71
2020/12/09 05:36:48;;;;;;;58.90;21.85;;;2.70;99.90;;;3.59;90.30;100580.75;5072709;28;20194;-71
2020/12/09 05:39:15;;;;;;;63.70;22.10;;;2.70;99.90;;;3.62;90.72;100583.28;5072564;28;20212;-71
2020/12/09 05:41:42;;;;;;;75.27;23.73;;;2.70;99.90;;;3.63;90.60;100587.59;5072603;28;20208;-71
2020/12/09 05:44:08;;;;;;;68.80;24.23;;;2.70;99.90;;;3.59;90.64;100576.44;5072650;28;20630;-71
2020/12/09 05:46:34;;;;;;;67.57;25.43;;;2.70;99.90;;;3.60;90.78;100577.28;5072572;28;20192;-71
2020/12/09 05:49:18;;;;;;;71.50;23.57;;;2.70;99.90;;;3.63;91.00;100585.00;5069348;28;20218;-71
2020/12/09 05:51:45;;;;;;;76.80;25.10;;;2.70;99.90;;;3.64;90.80;100584.13;5072275;28;20215;-72
2020/12/09 05:54:25;;;;;;;62.17;23.43;;;2.70;99.90;;;3.64;90.93;100590.16;5072419;28;20230;-71
2020/12/09 05:56:52;;;;;;;74.27;25.17;;;2.70;99.90;;;3.61;90.72;100594.50;5070705;28;20565;-70
2020/12/09 05:59:32;;;;;;;71.63;24.97;;;2.70;99.90;;;3.62;90.86;100593.63;5072099;28;20703;-71
2020/12/09 06:02:13;;;;;;;74.60;25.87;;;2.60;99.90;;;3.63;91.26;100592.78;5072439;28;20238;-71
2020/12/09 06:04:58;;;;;;;69.33;24.80;;;2.60;99.90;;;3.63;90.95;100595.34;5071495;28;20192;-71
2020/12/09 06:07:26;;;;;;;75.07;24.27;;;2.70;99.90;;;3.59;90.82;100591.09;5072316;28;20317;-71
2020/12/09 06:10:08;;;;;;;68.73;25.13;;;2.60;99.90;;;3.55;90.62;100589.44;5071839;28;20199;-71
2020/12/09 06:12:56;;;;;;;70.97;24.03;;;2.60;99.90;;;3.56;91.10;100588.53;5070846;28;20219;-71
2020/12/09 06:15:26;;;;;;;71.83;24.20;;;2.60;99.90;;;3.55;91.07;100592.84;5072059;28;20264;-71
2020/12/09 06:18:07;;;;;;;73.17;24.33;;;2.60;99.90;;;3.51;91.19;100588.59;5070521;28;20413;-71
2020/12/09 06:20:35;;;;;;;77.17;26.97;;;2.60;99.90;;;3.51;91.29;100583.44;5082517;28;20215;-71
2020/12/09 06:23:03;;;;;;;80.63;26.37;;;2.50;99.90;;;3.49;91.37;100587.75;5069222;28;20653;-71
2020/12/09 06:25:30;;;;;;;84.93;27.60;;;2.50;99.90;;;3.48;91.35;100588.59;5070269;28;20254;-71
2020/12/09 06:27:58;;;;;;;77.10;28.07;;;2.50;99.90;;;3.48;91.64;100609.28;5071831;28;20528;-71
2020/12/09 06:30:29;;;;;;;72.53;25.80;;;2.50;99.90;;;3.50;91.72;100606.72;5071435;28;20209;-70
2020/12/09 06:32:56;;;;;;;75.20;26.27;;;2.50;99.90;;;3.51;91.61;100603.25;5071924;28;20192;-70
2020/12/09 06:35:22;;;;;;;70.83;25.57;;;2.60;99.90;;;3.51;91.85;100603.25;5070312;28;20192;-71
2020/12/09 06:38:17;;;;;;;73.90;27.90;;;2.50;99.90;;;3.54;92.05;100604.06;5071434;28;20214;-71
2020/12/09 06:41:11;;;;;;;73.40;24.90;;;2.60;99.90;;;3.56;92.14;100607.50;5071419;28;20200;-71
2020/12/09 06:43:38;;;;;;;71.57;24.50;;;2.60;99.90;;;3.56;92.16;100614.41;5087204;28;20200;-71
2020/12/09 06:46:04;;;;;;;74.17;26.03;;;2.60;99.90;;;3.52;92.00;100613.56;5071419;28;20199;-71
2020/12/09 06:48:39;;;;;;;66.67;23.10;;;2.50;99.90;;;3.53;91.98;100609.28;5086658;28;20283;-71
2020/12/09 06:51:36;;;;;;;77.03;25.40;;;2.50;99.90;;;3.54;91.99;100608.38;5070093;28;20275;-71
2020/12/09 06:54:16;;;;;;;69.80;24.80;;;2.50;99.90;;;3.53;92.04;100609.28;5071130;28;20219;-71
2020/12/09 06:56:43;;;;;;;76.27;25.00;;;2.50;99.90;;;3.50;91.81;100610.13;5070059;28;20191;-71
2020/12/09 06:59:27;;;;;;;74.37;26.77;;;2.50;99.90;;;3.51;92.08;100608.44;5071154;28;20212;-71
2020/12/09 07:02:01;;;;;;;69.37;25.40;;;2.50;99.90;;;3.50;92.14;100612.72;5071153;28;20219;-71
2020/12/09 07:05:06;;;;;;;66.23;25.10;;;2.60;99.90;;;3.55;91.96;100617.88;5071093;28;20183;-70
2020/12/09 07:07:36;;;;;;;77.57;24.90;;;2.60;99.90;;;3.57;91.95;100619.56;5086780;28;20589;-71
2020/12/09 07:10:11;;;;;;;74.30;25.90;;;2.60;99.90;;;3.59;91.80;100622.13;5086547;28;20215;-71
2020/12/09 07:12:39;;;;;;;67.37;23.70;;;2.60;99.90;;;3.59;92.02;100632.47;5071575;28;20184;-71
2020/12/09 07:15:06;;;;;;;76.93;27.50;;;2.60;99.90;;;3.62;91.95;100635.00;5072340;28;20237;-71
2020/12/09 07:17:32;;;;;;;81.97;28.20;;;2.70;99.90;;;3.62;91.81;100638.47;5070995;28;20204;-70
2020/12/09 07:19:59;;;;;;;71.90;27.20;;;2.70;99.90;;;3.61;91.36;100639.34;5071034;28;20258;-71
2020/12/09 07:22:27;;;;;;;72.07;25.40;;;2.70;99.90;;;3.61;91.32;100646.25;5071067;28;20192;-71
2020/12/09 07:24:54;;;;;;;80.27;27.07;;;2.70;99.90;;;3.61;91.26;100641.06;5085796;28;20200;-71
2020/12/09 07:27:23;;;;;;;74.23;26.33;;;2.70;99.90;;;3.59;91.61;100646.25;5070908;28;20649;-71
2020/12/09 07:29:54;;;;;;;67.85;27.23;;;2.80;99.90;;;3.60;91.12;100652.31;5070638;28;20604;-70
2020/12/09 07:32:22;;;;;;;80.93;26.90;;;2.80;99.90;;;3.64;91.14;100656.56;5071052;28;20558;-71
2020/12/09 07:34:55;;;;;;;78.57;28.23;;;2.80;99.90;;;3.67;90.78;100656.50;5070997;28;20216;-71
2020/12/09 07:37:24;;;;;;;70.23;25.33;;;2.80;99.90;;;3.69;90.79;100659.94;5069630;28;20645;-71
2020/12/09 07:39:52;;;;;;;71.17;26.73;;;2.90;99.90;;;3.67;90.73;100659.09;5086066;28;20180;-71
2020/12/09 07:42:21;;;;;;;75.80;26.63;;;2.90;99.90;;;3.68;90.53;100655.66;5070925;28;20211;-71
2020/12/09 07:44:47;;;;;;;71.93;26.93;;;2.90;99.90;;;3.68;90.61;100653.91;5070848;28;20184;-72
2020/12/09 07:47:23;;;;;;;70.87;26.70;;;2.90;99.90;;;3.73;90.59;100653.88;5070781;28;20196;-71
2020/12/09 07:49:56;;;;;;;66.47;24.47;;;3.00;99.90;;;3.75;90.55;100660.72;5070622;28;20206;-71
2020/12/09 07:52:28;;;;;;;70.50;26.17;;;3.00;99.90;;;3.73;89.90;100664.22;5071394;28;20664;-70
2020/12/09 07:54:56;;;;;;;77.23;26.87;;;3.00;99.90;;;3.72;89.91;100660.78;5090157;28;20204;-70
2020/12/09 07:57:28;;;;;;;72.47;26.00;;;3.00;99.90;;;3.77;89.61;100655.53;5072682;28;20188;-71
2020/12/09 07:59:56;;;;;;;65.90;25.43;;;3.00;99.90;;;3.80;90.08;100658.13;5071186;28;20204;-71
2020/12/09 08:02:25;;;;;;;65.20;26.27;;;3.10;99.90;;;3.82;89.82;100661.50;5086363;28;20207;-71
2020/12/09 08:05:13;;;;;;;62.37;24.87;;;3.10;99.90;;;3.82;89.58;100656.34;5086436;28;20192;-71
2020/12/09 08:07:53;;;;;;;71.53;25.20;;;3.10;99.90;;;3.85;89.61;100661.50;5070940;28;20195;-71
2020/12/09 08:10:24;;;;;;;61.03;22.67;;;3.10;99.90;;;3.88;89.31;100655.41;5070371;28;20208;-71
2020/12/09 08:12:58;;;;;;;62.70;24.60;;;3.10;99.90;;;3.85;89.13;100659.75;5069617;28;20254;-71
2020/12/09 08:15:24;;;;;;;71.93;26.17;;;3.10;99.90;;;3.85;88.90;100658.91;5070560;28;20561;-71
2020/12/09 08:17:51;;;;;;;63.47;23.93;;;3.10;99.90;;;3.82;88.75;100654.63;5070533;28;20204;-72
2020/12/09 08:20:18;;;;;;;66.60;24.17;;;3.20;99.90;;;3.82;88.49;100646.00;5085821;28;20216;-70
2020/12/09 08:22:56;;;;;;;71.43;24.83;;;3.10;99.90;;;3.80;88.49;100658.94;5070393;28;20180;-71
2020/12/09 08:25:24;;;;;;;62.70;23.80;;;3.10;99.90;;;3.83;88.47;100668.44;5069487;28;20188;-70
2020/12/09 08:27:52;;;;;;;68.00;25.27;;;3.10;99.90;;;3.82;88.36;100667.56;5072085;28;20289;-70
2020/12/09 08:30:22;;;;;;;61.17;24.60;;;3.10;99.90;;;3.83;88.30;100676.19;5090150;28;20214;-72
2020/12/09 08:32:57;;;;;;;60.72;23.98;;;3.10;99.90;;;3.84;87.91;100675.31;5074712;28;20176;-72
2020/12/09 08:35:25;;;;;;;63.80;23.77;;;3.10;99.90;;;3.79;87.87;100685.72;5074703;28;20270;-71
2020/12/09 08:37:51;;;;;;;67.13;24.27;;;3.10;99.90;;;3.79;87.24;100679.66;5074344;28;20200;-71
2020/12/09 08:40:17;;;;;;;62.50;25.45;;;3.10;99.90;;;3.81;87.62;100690.88;5074046;28;20216;-71
2020/12/09 08:42:51;;;;;;;68.27;24.27;;;3.20;99.90;;;3.82;87.48;100690.84;5074304;28;20192;-70
2020/12/09 08:45:18;;;;;;;65.60;24.00;;;3.20;99.90;;;3.84;87.17;100685.66;5074400;28;20180;-71
2020/12/09 08:47:44;;;;;;;62.00;24.30;;;3.20;99.90;;;3.88;87.25;100684.75;5073344;28;20208;-70
2020/12/09 08:50:11;;;;;;;60.72;23.63;;;3.20;99.90;;;3.91;87.21;100686.44;5073778;28;20207;-71
2020/12/09 08:52:38;;;;;;;63.50;23.80;;;3.20;99.90;;;3.90;86.98;100677.84;5074043;28;20185;-71
2020/12/09 08:55:04;;;;;;;59.50;23.07;;;3.30;99.90;;;3.88;86.89;100670.94;5073495;28;20196;-71
2020/12/09 08:57:30;;;;;;;60.15;23.42;;;3.20;99.90;;;3.88;86.77;100676.13;5089096;28;20188;-72
2020/12/09 08:59:57;;;;;;;66.80;24.43;;;3.30;99.90;;;3.92;86.69;100683.81;5073339;28;20215;-71
2020/12/09 09:02:23;;;;;;;60.90;23.43;;;3.30;99.90;;;3.91;86.33;100682.13;5073648;28;20184;-72
2020/12/09 09:04:49;;;;;;;72.23;25.03;;;3.30;99.90;;;3.92;86.42;100685.56;5089401;28;20203;-72
2020/12/09 09:07:16;;;;;;;72.67;24.00;;;3.30;99.90;;;3.95;86.26;100690.72;5073806;28;20188;-71
2020/12/09 09:09:43;;;;;;;60.37;23.77;;;3.30;99.90;;;3.96;86.40;100695.88;5089498;28;20188;-69
2020/12/09 09:12:10;;;;;;;66.80;23.13;;;3.30;99.90;;;3.93;86.11;100685.56;5073624;28;20184;-71
2020/12/09 09:14:36;;;;;;;65.22;23.63;;;3.30;99.90;;;3.92;86.03;100690.75;5073297;28;20180;-71
2020/12/09 09:17:03;;;;;;;57.77;22.10;;;3.30;99.90;;;3.93;86.22;100692.47;5074041;28;20192;-71
2020/12/09 09:19:29;;;;;;;61.67;23.77;;;3.30;99.90;;;3.96;86.39;100692.41;5074322;28;20708;-71
2020/12/09 09:21:55;;;;;;;65.03;25.63;;;3.30;99.90;;;3.98;85.89;100701.03;5073619;28;20199;-71
2020/12/09 09:24:23;;;;;;;59.20;24.17;;;3.40;99.90;;;3.96;85.96;100700.19;5074419;28;20192;-72
2020/12/09 09:26:50;;;;;;;64.93;23.97;;;3.40;99.90;;;3.95;85.93;100701.06;5084549;28;20188;-71
2020/12/09 09:29:16;;;;;;;57.00;23.63;;;3.40;99.90;;;3.96;85.72;100701.03;5073316;28;20185;-71
2020/12/09 09:31:43;;;;;;;60.13;21.77;;;3.40;99.90;;;3.94;85.67;100704.50;5075097;28;20215;-71
2020/12/09 09:34:09;;;;;;;63.80;24.53;;;3.40;99.90;;;3.91;85.79;100704.56;5089795;28;20246;-71
2020/12/09 09:36:36;;;;;;;62.17;24.57;;;3.30;99.90;;;3.90;86.11;100706.31;5073131;28;20184;-71
2020/12/09 09:39:03;;;;;;;69.90;25.77;;;3.30;99.90;;;3.91;85.60;100708.00;5071152;28;20239;-71
2020/12/09 09:41:30;;;;;;;65.67;25.40;;;3.30;99.90;;;3.94;85.66;100701.91;5073356;28;20211;-70
2020/12/09 09:43:56;;;;;;;62.20;24.17;;;3.40;99.90;;;3.96;85.82;100710.53;5073217;28;20181;-70
2020/12/09 09:46:23;;;;;;;64.35;24.77;;;3.40;99.90;;;3.98;85.76;100712.25;5073401;28;20188;-70
2020/12/09 09:48:50;;;;;;;57.53;24.00;;;3.40;99.90;;;3.99;85.72;100713.94;5072674;28;20199;-70
2020/12/09 09:51:18;;;;;;;67.27;24.17;;;3.40;99.90;;;3.98;85.49;100714.84;5071913;28;20215;-71
2020/12/09 09:53:45;;;;;;;64.90;24.97;;;3.40;99.90;;;3.99;85.55;100707.91;5080206;28;20191;-71
2020/12/09 09:56:11;;;;;;;67.15;25.10;;;3.40;99.90;;;4.00;85.67;100714.81;5088264;28;20266;-71
2020/12/09 09:58:38;;;;;;;61.33;23.02;;;3.50;99.90;;;4.00;85.25;100718.28;5072445;28;20200;-71
2020/12/09 10:01:04;;;;;;;61.78;23.15;;;3.50;99.90;;;4.01;85.18;100716.50;5072981;28;20208;-70
2020/12/09 10:03:30;;;;;;;66.53;23.73;;;3.50;99.90;;;3.99;85.35;100713.94;5073210;28;20211;-70
2020/12/09 10:05:57;;;;;;;59.17;23.37;;;3.50;99.90;;;4.00;84.95;100720.00;5072443;28;20192;-71
2020/12/09 10:08:23;;;;;;;60.87;23.53;;;3.50;99.90;;;4.01;85.22;100724.28;5072507;28;20195;-70
2020/12/09 10:10:50;;;;;;;64.97;23.13;;;3.50;99.90;;;4.03;85.23;100718.22;5088173;28;20216;-71
2020/12/09 10:13:16;;;;;;;60.57;23.57;;;3.50;99.90;;;4.04;84.95;100716.47;5072511;28;20200;-70
2020/12/09 10:15:43;;;;;;;66.25;24.65;;;3.50;99.90;;;4.02;85.17;100721.66;5072240;28;20190;-71
2020/12/09 10:18:10;;;;;;;58.90;21.65;;;3.50;99.90;;;3.99;85.14;100713.94;5072082;28;20212;-71
2020/12/09 10:20:36;;;;;;;60.97;22.87;;;3.50;99.90;;;4.01;84.99;100709.63;5071019;28;20211;-71
2020/12/09 10:23:03;;;;;;;65.40;23.57;;;3.50;99.90;;;4.06;85.05;100707.84;5072061;28;20218;-70